sensor_id;sensor_type;location;lat;lon;timestamp;P1;durP1;ratioP1;P2;durP2;ratioP2
9485;SDS011;4781;48.776;9.200;2023-04-03T00:01:33;6.12;;;2.98;;
9485;SDS011;4781;48.776;9.200;2023-04-03T00:04:04;5.90;;;2.90;;
9485;SDS011;4781;48.776;9.200;2023-04-03T00:06:33;6.00;;;2.67;;
9485;SDS011;4781;48.776;9.200;2023-04-03T00:09:01;5.97;;;2.70;;
9485;SDS011;4781;48.776;9.200;2023-04-03T00:11:30;6.55;;;3.33;;
9485;SDS011;4781;48.776;9.200;2023-04-03T00:13:58;5.40;;;2.80;;
9485;SDS011;4781;48.776;9.200;2023-04-03T00:16:27;6.72;;;2.70;;
9485;SDS011;4781;48.776;9.200;2023-04-03T00:18:55;5.47;;;2.83;;
9485;SDS011;4781;48.776;9.200;2023-04-03T00:21:23;5.35;;;2.85;;
9485;SDS011;4781;48.776;9.200;2023-04-03T00:23:52;5.40;;;2.90;;
9485;SDS011;4781;48.776;9.200;2023-04-03T00:26:20;6.40;;;3.08;;
9485;SDS011;4781;48.776;9.200;2023-04-03T00:28:49;6.83;;;2.95;;
9485;SDS011;4781;48.776;9.200;2023-04-03T00:31:17;5.37;;;2.80;;
9485;SDS011;4781;48.776;9.200;2023-04-03T00:33:46;4.87;;;2.75;;
9485;SDS011;4781;48.776;9.200;2023-04-03T00:36:14;5.75;;;3.08;;
9485;SDS011;4781;48.776;9.200;2023-04-03T00:38:43;6.17;;;2.92;;
9485;SDS011;4781;48.776;9.200;2023-04-03T00:41:11;6.40;;;2.70;;
9485;SDS011;4781;48.776;9.200;2023-04-03T00:43:40;6.97;;;3.10;;
9485;SDS011;4781;48.776;9.200;2023-04-03T00:46:08;4.87;;;2.65;;
9485;SDS011;4781;48.776;9.200;2023-04-03T00:48:40;5.10;;;2.60;;
9485;SDS011;4781;48.776;9.200;2023-04-03T00:51:16;5.50;;;3.08;;
9485;SDS011;4781;48.776;9.200;2023-04-03T00:53:51;4.95;;;2.80;;
9485;SDS011;4781;48.776;9.200;2023-04-03T00:56:23;5.25;;;2.90;;
9485;SDS011;4781;48.776;9.200;2023-04-03T00:58:57;5.28;;;3.02;;
9485;SDS011;4781;48.776;9.200;2023-04-03T01:01:28;5.90;;;3.10;;
9485;SDS011;4781;48.776;9.200;2023-04-03T01:03:58;5.80;;;2.90;;
9485;SDS011;4781;48.776;9.200;2023-04-03T01:06:29;6.37;;;3.08;;
9485;SDS011;4781;48.776;9.200;2023-04-03T01:09:04;6.42;;;3.17;;
9485;SDS011;4781;48.776;9.200;2023-04-03T01:11:32;7.45;;;2.85;;
9485;SDS011;4781;48.776;9.200;2023-04-03T01:14:01;5.53;;;2.65;;
9485;SDS011;4781;48.776;9.200;2023-04-03T01:16:31;5.05;;;3.10;;
9485;SDS011;4781;48.776;9.200;2023-04-03T01:19:00;6.55;;;2.83;;
9485;SDS011;4781;48.776;9.200;2023-04-03T01:24:35;7.60;;;2.85;;
9485;SDS011;4781;48.776;9.200;2023-04-03T01:27:05;5.05;;;2.55;;
9485;SDS011;4781;48.776;9.200;2023-04-03T01:29:36;5.45;;;3.10;;
9485;SDS011;4781;48.776;9.200;2023-04-03T01:32:06;5.07;;;2.90;;
9485;SDS011;4781;48.776;9.200;2023-04-03T01:34:35;5.10;;;2.60;;
9485;SDS011;4781;48.776;9.200;2023-04-03T01:37:03;5.83;;;2.65;;
9485;SDS011;4781;48.776;9.200;2023-04-03T01:39:32;5.55;;;3.10;;
9485;SDS011;4781;48.776;9.200;2023-04-03T01:42:00;7.50;;;3.22;;
9485;SDS011;4781;48.776;9.200;2023-04-03T01:44:30;5.30;;;3.12;;
9485;SDS011;4781;48.776;9.200;2023-04-03T01:46:59;5.28;;;2.83;;
9485;SDS011;4781;48.776;9.200;2023-04-03T01:49:27;5.22;;;2.75;;
9485;SDS011;4781;48.776;9.200;2023-04-03T01:51:56;6.03;;;3.08;;
9485;SDS011;4781;48.776;9.200;2023-04-03T01:54:24;5.12;;;2.65;;
9485;SDS011;4781;48.776;9.200;2023-04-03T01:56:52;5.00;;;2.85;;
9485;SDS011;4781;48.776;9.200;2023-04-03T01:59:21;5.83;;;2.85;;
9485;SDS011;4781;48.776;9.200;2023-04-03T02:01:49;6.15;;;3.05;;
9485;SDS011;4781;48.776;9.200;2023-04-03T02:04:18;5.87;;;3.30;;
9485;SDS011;4781;48.776;9.200;2023-04-03T02:06:46;5.03;;;2.98;;
9485;SDS011;4781;48.776;9.200;2023-04-03T02:09:14;5.50;;;3.08;;
9485;SDS011;4781;48.776;9.200;2023-04-03T02:11:43;5.17;;;2.58;;
9485;SDS011;4781;48.776;9.200;2023-04-03T02:14:11;6.35;;;3.02;;
9485;SDS011;4781;48.776;9.200;2023-04-03T02:16:40;5.53;;;2.62;;
9485;SDS011;4781;48.776;9.200;2023-04-03T02:19:08;5.42;;;2.87;;
9485;SDS011;4781;48.776;9.200;2023-04-03T02:21:36;5.62;;;2.92;;
9485;SDS011;4781;48.776;9.200;2023-04-03T02:24:05;4.50;;;2.92;;
9485;SDS011;4781;48.776;9.200;2023-04-03T02:26:33;6.20;;;3.00;;
9485;SDS011;4781;48.776;9.200;2023-04-03T02:29:02;6.87;;;2.80;;
9485;SDS011;4781;48.776;9.200;2023-04-03T02:31:30;5.03;;;2.62;;
9485;SDS011;4781;48.776;9.200;2023-04-03T02:33:59;5.37;;;2.83;;
9485;SDS011;4781;48.776;9.200;2023-04-03T02:36:27;6.58;;;3.27;;
9485;SDS011;4781;48.776;9.200;2023-04-03T02:38:55;5.25;;;2.87;;
9485;SDS011;4781;48.776;9.200;2023-04-03T02:41:24;5.78;;;3.25;;
9485;SDS011;4781;48.776;9.200;2023-04-03T02:43:54;6.05;;;3.22;;
9485;SDS011;4781;48.776;9.200;2023-04-03T02:46:22;5.05;;;2.85;;
9485;SDS011;4781;48.776;9.200;2023-04-03T02:48:51;5.00;;;3.00;;
9485;SDS011;4781;48.776;9.200;2023-04-03T02:51:19;6.58;;;3.20;;
9485;SDS011;4781;48.776;9.200;2023-04-03T02:53:49;6.37;;;3.22;;
9485;SDS011;4781;48.776;9.200;2023-04-03T02:56:17;4.53;;;2.85;;
9485;SDS011;4781;48.776;9.200;2023-04-03T02:58:46;5.50;;;2.85;;
9485;SDS011;4781;48.776;9.200;2023-04-03T03:01:14;4.83;;;2.47;;
9485;SDS011;4781;48.776;9.200;2023-04-03T03:03:43;6.83;;;3.17;;
9485;SDS011;4781;48.776;9.200;2023-04-03T03:06:12;6.12;;;2.72;;
9485;SDS011;4781;48.776;9.200;2023-04-03T03:08:43;5.33;;;2.70;;
9485;SDS011;4781;48.776;9.200;2023-04-03T03:11:11;6.00;;;3.08;;
9485;SDS011;4781;48.776;9.200;2023-04-03T03:13:40;5.90;;;3.47;;
9485;SDS011;4781;48.776;9.200;2023-04-03T03:16:09;5.17;;;3.00;;
9485;SDS011;4781;48.776;9.200;2023-04-03T03:18:37;6.05;;;2.98;;
9485;SDS011;4781;48.776;9.200;2023-04-03T03:21:05;4.62;;;2.85;;
9485;SDS011;4781;48.776;9.200;2023-04-03T03:23:35;6.15;;;2.83;;
9485;SDS011;4781;48.776;9.200;2023-04-03T03:26:05;5.58;;;2.80;;
9485;SDS011;4781;48.776;9.200;2023-04-03T03:28:36;5.45;;;2.87;;
9485;SDS011;4781;48.776;9.200;2023-04-03T03:31:06;4.55;;;2.40;;
9485;SDS011;4781;48.776;9.200;2023-04-03T03:33:36;7.22;;;2.70;;
9485;SDS011;4781;48.776;9.200;2023-04-03T03:36:04;5.05;;;3.02;;
9485;SDS011;4781;48.776;9.200;2023-04-03T03:38:33;7.25;;;2.87;;
9485;SDS011;4781;48.776;9.200;2023-04-03T03:41:01;7.00;;;2.90;;
9485;SDS011;4781;48.776;9.200;2023-04-03T03:43:30;5.17;;;2.60;;
9485;SDS011;4781;48.776;9.200;2023-04-03T03:45:58;6.30;;;2.80;;
9485;SDS011;4781;48.776;9.200;2023-04-03T03:48:27;6.80;;;3.12;;
9485;SDS011;4781;48.776;9.200;2023-04-03T03:50:55;6.70;;;2.75;;
9485;SDS011;4781;48.776;9.200;2023-04-03T03:53:24;5.65;;;2.75;;
9485;SDS011;4781;48.776;9.200;2023-04-03T03:55:52;7.75;;;2.70;;
9485;SDS011;4781;48.776;9.200;2023-04-03T03:58:21;5.50;;;2.90;;
9485;SDS011;4781;48.776;9.200;2023-04-03T04:00:49;7.20;;;2.90;;
9485;SDS011;4781;48.776;9.200;2023-04-03T04:03:17;6.15;;;3.02;;
9485;SDS011;4781;48.776;9.200;2023-04-03T04:05:46;5.80;;;2.77;;
9485;SDS011;4781;48.776;9.200;2023-04-03T04:08:15;6.75;;;3.40;;
9485;SDS011;4781;48.776;9.200;2023-04-03T04:10:43;6.70;;;2.60;;
9485;SDS011;4781;48.776;9.200;2023-04-03T04:13:11;5.92;;;2.98;;
9485;SDS011;4781;48.776;9.200;2023-04-03T04:15:40;5.72;;;3.12;;
9485;SDS011;4781;48.776;9.200;2023-04-03T04:18:09;5.75;;;2.80;;
9485;SDS011;4781;48.776;9.200;2023-04-03T04:20:37;6.67;;;2.80;;
9485;SDS011;4781;48.776;9.200;2023-04-03T04:23:06;6.20;;;2.77;;
9485;SDS011;4781;48.776;9.200;2023-04-03T04:25:34;7.55;;;3.15;;
9485;SDS011;4781;48.776;9.200;2023-04-03T04:28:03;5.28;;;2.60;;
9485;SDS011;4781;48.776;9.200;2023-04-03T04:30:31;8.18;;;3.20;;
9485;SDS011;4781;48.776;9.200;2023-04-03T04:33:00;6.67;;;2.85;;
9485;SDS011;4781;48.776;9.200;2023-04-03T04:35:28;4.83;;;2.83;;
9485;SDS011;4781;48.776;9.200;2023-04-03T04:37:57;5.28;;;3.00;;
9485;SDS011;4781;48.776;9.200;2023-04-03T04:40:25;6.08;;;3.08;;
9485;SDS011;4781;48.776;9.200;2023-04-03T04:42:55;7.65;;;2.77;;
9485;SDS011;4781;48.776;9.200;2023-04-03T04:45:24;6.22;;;3.05;;
9485;SDS011;4781;48.776;9.200;2023-04-03T04:47:54;6.65;;;2.77;;
9485;SDS011;4781;48.776;9.200;2023-04-03T04:50:23;6.97;;;2.72;;
9485;SDS011;4781;48.776;9.200;2023-04-03T04:52:51;6.92;;;3.08;;
9485;SDS011;4781;48.776;9.200;2023-04-03T04:55:21;5.58;;;2.70;;
9485;SDS011;4781;48.776;9.200;2023-04-03T04:57:50;6.90;;;3.12;;
9485;SDS011;4781;48.776;9.200;2023-04-03T05:00:18;6.27;;;2.80;;
9485;SDS011;4781;48.776;9.200;2023-04-03T05:02:47;6.08;;;2.62;;
9485;SDS011;4781;48.776;9.200;2023-04-03T05:05:16;4.65;;;2.50;;
9485;SDS011;4781;48.776;9.200;2023-04-03T05:07:44;4.87;;;2.70;;
9485;SDS011;4781;48.776;9.200;2023-04-03T05:10:12;4.42;;;2.22;;
9485;SDS011;4781;48.776;9.200;2023-04-03T05:12:41;4.65;;;2.50;;
9485;SDS011;4781;48.776;9.200;2023-04-03T05:15:09;4.35;;;2.60;;
9485;SDS011;4781;48.776;9.200;2023-04-03T05:17:38;8.88;;;2.83;;
9485;SDS011;4781;48.776;9.200;2023-04-03T05:20:07;5.87;;;3.08;;
9485;SDS011;4781;48.776;9.200;2023-04-03T05:22:36;4.33;;;2.40;;
9485;SDS011;4781;48.776;9.200;2023-04-03T05:25:05;7.42;;;2.90;;
9485;SDS011;4781;48.776;9.200;2023-04-03T05:27:35;4.53;;;2.42;;
9485;SDS011;4781;48.776;9.200;2023-04-03T05:30:04;7.36;;;3.20;;
9485;SDS011;4781;48.776;9.200;2023-04-03T05:32:34;4.67;;;2.60;;
9485;SDS011;4781;48.776;9.200;2023-04-03T05:35:02;4.87;;;2.55;;
9485;SDS011;4781;48.776;9.200;2023-04-03T05:37:32;4.95;;;2.47;;
9485;SDS011;4781;48.776;9.200;2023-04-03T05:40:02;6.42;;;2.67;;
9485;SDS011;4781;48.776;9.200;2023-04-03T05:42:32;6.72;;;2.65;;
9485;SDS011;4781;48.776;9.200;2023-04-03T05:45:00;6.75;;;3.00;;
9485;SDS011;4781;48.776;9.200;2023-04-03T05:47:29;4.65;;;2.58;;
9485;SDS011;4781;48.776;9.200;2023-04-03T05:49:57;6.45;;;2.47;;
9485;SDS011;4781;48.776;9.200;2023-04-03T05:52:27;6.58;;;2.58;;
9485;SDS011;4781;48.776;9.200;2023-04-03T05:55:02;8.40;;;3.20;;
9485;SDS011;4781;48.776;9.200;2023-04-03T05:57:31;4.25;;;2.55;;
9485;SDS011;4781;48.776;9.200;2023-04-03T05:59:59;7.22;;;3.05;;
9485;SDS011;4781;48.776;9.200;2023-04-03T06:02:27;5.33;;;2.33;;
9485;SDS011;4781;48.776;9.200;2023-04-03T06:04:57;5.50;;;2.80;;
9485;SDS011;4781;48.776;9.200;2023-04-03T06:07:25;5.72;;;2.70;;
9485;SDS011;4781;48.776;9.200;2023-04-03T06:09:55;5.62;;;2.45;;
9485;SDS011;4781;48.776;9.200;2023-04-03T06:12:24;6.75;;;2.47;;
9485;SDS011;4781;48.776;9.200;2023-04-03T06:14:54;4.92;;;2.40;;
9485;SDS011;4781;48.776;9.200;2023-04-03T06:17:23;4.70;;;2.60;;
9485;SDS011;4781;48.776;9.200;2023-04-03T06:19:52;4.12;;;2.37;;
9485;SDS011;4781;48.776;9.200;2023-04-03T06:22:21;5.53;;;2.37;;
9485;SDS011;4781;48.776;9.200;2023-04-03T06:24:51;4.78;;;2.42;;
9485;SDS011;4781;48.776;9.200;2023-04-03T06:27:20;8.15;;;2.75;;
9485;SDS011;4781;48.776;9.200;2023-04-03T06:29:48;9.75;;;2.72;;
9485;SDS011;4781;48.776;9.200;2023-04-03T06:32:17;4.97;;;2.80;;
9485;SDS011;4781;48.776;9.200;2023-04-03T06:34:46;6.67;;;3.00;;
9485;SDS011;4781;48.776;9.200;2023-04-03T06:37:15;6.50;;;2.98;;
9485;SDS011;4781;48.776;9.200;2023-04-03T06:39:47;6.42;;;2.45;;
9485;SDS011;4781;48.776;9.200;2023-04-03T06:42:16;6.45;;;2.92;;
9485;SDS011;4781;48.776;9.200;2023-04-03T06:44:44;5.55;;;2.80;;
9485;SDS011;4781;48.776;9.200;2023-04-03T06:47:13;5.50;;;2.70;;
9485;SDS011;4781;48.776;9.200;2023-04-03T06:49:43;7.03;;;2.70;;
9485;SDS011;4781;48.776;9.200;2023-04-03T06:52:11;5.75;;;2.52;;
9485;SDS011;4781;48.776;9.200;2023-04-03T06:54:40;7.08;;;2.58;;
9485;SDS011;4781;48.776;9.200;2023-04-03T06:57:09;4.47;;;2.60;;
9485;SDS011;4781;48.776;9.200;2023-04-03T06:59:37;5.92;;;2.12;;
9485;SDS011;4781;48.776;9.200;2023-04-03T07:02:06;5.10;;;2.47;;
9485;SDS011;4781;48.776;9.200;2023-04-03T07:04:36;7.62;;;2.92;;
9485;SDS011;4781;48.776;9.200;2023-04-03T07:07:05;5.90;;;3.12;;
9485;SDS011;4781;48.776;9.200;2023-04-03T07:09:34;8.75;;;2.55;;
9485;SDS011;4781;48.776;9.200;2023-04-03T07:12:02;6.95;;;2.40;;
9485;SDS011;4781;48.776;9.200;2023-04-03T07:14:33;5.83;;;2.40;;
9485;SDS011;4781;48.776;9.200;2023-04-03T07:17:02;4.40;;;2.37;;
9485;SDS011;4781;48.776;9.200;2023-04-03T07:19:30;4.55;;;2.47;;
9485;SDS011;4781;48.776;9.200;2023-04-03T07:21:59;5.65;;;2.60;;
9485;SDS011;4781;48.776;9.200;2023-04-03T07:24:27;5.67;;;2.92;;
9485;SDS011;4781;48.776;9.200;2023-04-03T07:26:56;5.10;;;2.70;;
9485;SDS011;4781;48.776;9.200;2023-04-03T07:29:24;5.45;;;2.35;;
9485;SDS011;4781;48.776;9.200;2023-04-03T07:31:53;5.55;;;2.47;;
9485;SDS011;4781;48.776;9.200;2023-04-03T07:34:21;5.20;;;3.00;;
9485;SDS011;4781;48.776;9.200;2023-04-03T07:36:50;5.37;;;2.50;;
9485;SDS011;4781;48.776;9.200;2023-04-03T07:39:19;5.92;;;2.87;;
9485;SDS011;4781;48.776;9.200;2023-04-03T07:41:47;4.58;;;2.37;;
9485;SDS011;4781;48.776;9.200;2023-04-03T07:44:15;5.62;;;2.62;;
9485;SDS011;4781;48.776;9.200;2023-04-03T07:46:44;9.25;;;2.70;;
9485;SDS011;4781;48.776;9.200;2023-04-03T07:49:14;5.35;;;2.62;;
9485;SDS011;4781;48.776;9.200;2023-04-03T07:51:44;6.55;;;3.00;;
9485;SDS011;4781;48.776;9.200;2023-04-03T07:54:14;5.15;;;2.58;;
9485;SDS011;4781;48.776;9.200;2023-04-03T07:56:46;7.90;;;2.90;;
9485;SDS011;4781;48.776;9.200;2023-04-03T07:59:16;5.30;;;2.40;;
9485;SDS011;4781;48.776;9.200;2023-04-03T08:01:44;5.03;;;2.25;;
9485;SDS011;4781;48.776;9.200;2023-04-03T08:04:12;7.42;;;2.50;;
9485;SDS011;4781;48.776;9.200;2023-04-03T08:06:41;5.33;;;2.33;;
9485;SDS011;4781;48.776;9.200;2023-04-03T08:09:09;5.45;;;2.40;;
9485;SDS011;4781;48.776;9.200;2023-04-03T08:11:38;6.80;;;2.35;;
9485;SDS011;4781;48.776;9.200;2023-04-03T08:14:07;4.70;;;2.37;;
9485;SDS011;4781;48.776;9.200;2023-04-03T08:16:37;4.12;;;2.33;;
9485;SDS011;4781;48.776;9.200;2023-04-03T08:19:05;7.47;;;2.55;;
9485;SDS011;4781;48.776;9.200;2023-04-03T08:21:34;5.72;;;2.80;;
9485;SDS011;4781;48.776;9.200;2023-04-03T08:24:02;6.33;;;2.30;;
9485;SDS011;4781;48.776;9.200;2023-04-03T08:26:31;4.67;;;2.60;;
9485;SDS011;4781;48.776;9.200;2023-04-03T08:29:00;7.08;;;2.70;;
9485;SDS011;4781;48.776;9.200;2023-04-03T08:31:28;6.37;;;2.52;;
9485;SDS011;4781;48.776;9.200;2023-04-03T08:33:57;8.30;;;2.65;;
9485;SDS011;4781;48.776;9.200;2023-04-03T08:36:26;5.87;;;2.60;;
9485;SDS011;4781;48.776;9.200;2023-04-03T08:38:57;5.83;;;2.50;;
9485;SDS011;4781;48.776;9.200;2023-04-03T08:41:38;5.62;;;2.70;;
9485;SDS011;4781;48.776;9.200;2023-04-03T08:44:25;5.45;;;2.47;;
9485;SDS011;4781;48.776;9.200;2023-04-03T08:47:22;7.15;;;2.65;;
9485;SDS011;4781;48.776;9.200;2023-04-03T08:50:04;6.87;;;2.75;;
9485;SDS011;4781;48.776;9.200;2023-04-03T08:52:42;5.42;;;2.60;;
9485;SDS011;4781;48.776;9.200;2023-04-03T08:55:23;6.70;;;2.65;;
9485;SDS011;4781;48.776;9.200;2023-04-03T09:00:56;7.00;;;2.67;;
9485;SDS011;4781;48.776;9.200;2023-04-03T09:03:19;3.83;;;2.12;;
9485;SDS011;4781;48.776;9.200;2023-04-03T09:08:40;4.47;;;2.12;;
9485;SDS011;4781;48.776;9.200;2023-04-03T09:11:22;5.87;;;2.30;;
9485;SDS011;4781;48.776;9.200;2023-04-03T09:14:19;6.65;;;2.50;;
9485;SDS011;4781;48.776;9.200;2023-04-03T09:16:59;6.28;;;2.55;;
9485;SDS011;4781;48.776;9.200;2023-04-03T09:22:26;7.75;;;2.40;;
9485;SDS011;4781;48.776;9.200;2023-04-03T09:24:59;6.62;;;2.37;;
9485;SDS011;4781;48.776;9.200;2023-04-03T09:27:31;4.62;;;2.35;;
9485;SDS011;4781;48.776;9.200;2023-04-03T09:29:59;5.12;;;2.20;;
9485;SDS011;4781;48.776;9.200;2023-04-03T09:32:29;5.75;;;2.37;;
9485;SDS011;4781;48.776;9.200;2023-04-03T09:35:04;5.97;;;2.52;;
9485;SDS011;4781;48.776;9.200;2023-04-03T09:38:18;6.62;;;2.62;;
9485;SDS011;4781;48.776;9.200;2023-04-03T09:40:34;5.67;;;2.72;;
9485;SDS011;4781;48.776;9.200;2023-04-03T09:43:28;5.55;;;2.40;;
9485;SDS011;4781;48.776;9.200;2023-04-03T09:46:16;4.87;;;2.50;;
9485;SDS011;4781;48.776;9.200;2023-04-03T09:48:58;5.90;;;2.50;;
9485;SDS011;4781;48.776;9.200;2023-04-03T09:51:29;5.60;;;2.40;;
9485;SDS011;4781;48.776;9.200;2023-04-03T09:53:59;5.30;;;2.40;;
9485;SDS011;4781;48.776;9.200;2023-04-03T09:56:28;7.03;;;2.85;;
9485;SDS011;4781;48.776;9.200;2023-04-03T10:01:32;4.50;;;2.20;;
9485;SDS011;4781;48.776;9.200;2023-04-03T10:04:16;5.47;;;2.00;;
9485;SDS011;4781;48.776;9.200;2023-04-03T10:06:47;6.80;;;2.00;;
9485;SDS011;4781;48.776;9.200;2023-04-03T10:09:28;8.08;;;3.00;;
9485;SDS011;4781;48.776;9.200;2023-04-03T10:12:06;7.67;;;2.52;;
9485;SDS011;4781;48.776;9.200;2023-04-03T10:14:39;7.28;;;2.40;;
9485;SDS011;4781;48.776;9.200;2023-04-03T10:26:45;6.70;;;2.98;;
9485;SDS011;4781;48.776;9.200;2023-04-03T10:35:16;4.90;;;2.02;;
9485;SDS011;4781;48.776;9.200;2023-04-03T10:38:01;7.60;;;2.30;;
9485;SDS011;4781;48.776;9.200;2023-04-03T10:40:54;4.90;;;2.17;;
9485;SDS011;4781;48.776;9.200;2023-04-03T10:43:40;5.47;;;2.22;;
9485;SDS011;4781;48.776;9.200;2023-04-03T10:46:28;6.40;;;1.87;;
9485;SDS011;4781;48.776;9.200;2023-04-03T10:49:20;4.97;;;1.95;;
9485;SDS011;4781;48.776;9.200;2023-04-03T10:52:17;4.97;;;2.10;;
9485;SDS011;4781;48.776;9.200;2023-04-03T10:55:30;5.53;;;2.42;;
9485;SDS011;4781;48.776;9.200;2023-04-03T10:58:23;7.75;;;2.70;;
9485;SDS011;4781;48.776;9.200;2023-04-03T11:01:06;4.17;;;1.80;;
9485;SDS011;4781;48.776;9.200;2023-04-03T11:03:41;5.33;;;2.30;;
9485;SDS011;4781;48.776;9.200;2023-04-03T11:06:17;6.92;;;2.52;;
9485;SDS011;4781;48.776;9.200;2023-04-03T11:09:02;5.70;;;2.20;;
9485;SDS011;4781;48.776;9.200;2023-04-03T11:11:40;7.92;;;1.85;;
9485;SDS011;4781;48.776;9.200;2023-04-03T11:17:05;4.72;;;1.80;;
9485;SDS011;4781;48.776;9.200;2023-04-03T11:19:51;4.15;;;2.00;;
9485;SDS011;4781;48.776;9.200;2023-04-03T11:22:39;4.58;;;1.80;;
9485;SDS011;4781;48.776;9.200;2023-04-03T11:27:53;4.78;;;1.90;;
9485;SDS011;4781;48.776;9.200;2023-04-03T11:31:29;4.70;;;2.02;;
9485;SDS011;4781;48.776;9.200;2023-04-03T11:36:25;7.42;;;2.10;;
9485;SDS011;4781;48.776;9.200;2023-04-03T11:38:53;6.25;;;2.00;;
9485;SDS011;4781;48.776;9.200;2023-04-03T11:41:28;6.62;;;1.95;;
9485;SDS011;4781;48.776;9.200;2023-04-03T11:44:03;5.60;;;2.00;;
9485;SDS011;4781;48.776;9.200;2023-04-03T11:46:57;5.87;;;2.17;;
9485;SDS011;4781;48.776;9.200;2023-04-03T12:03:32;5.28;;;1.90;;
9485;SDS011;4781;48.776;9.200;2023-04-03T12:08:47;4.12;;;1.77;;
9485;SDS011;4781;48.776;9.200;2023-04-03T12:11:29;5.28;;;1.75;;
9485;SDS011;4781;48.776;9.200;2023-04-03T12:16:42;4.15;;;1.80;;
9485;SDS011;4781;48.776;9.200;2023-04-03T12:24:33;7.08;;;2.02;;
9485;SDS011;4781;48.776;9.200;2023-04-03T12:32:57;7.08;;;2.35;;
9485;SDS011;4781;48.776;9.200;2023-04-03T12:39:12;5.25;;;2.42;;
9485;SDS011;4781;48.776;9.200;2023-04-03T12:44:24;6.25;;;1.25;;
9485;SDS011;4781;48.776;9.200;2023-04-03T12:47:08;4.83;;;1.70;;
9485;SDS011;4781;48.776;9.200;2023-04-03T12:49:42;4.40;;;2.10;;
9485;SDS011;4781;48.776;9.200;2023-04-03T12:54:59;4.15;;;1.70;;
9485;SDS011;4781;48.776;9.200;2023-04-03T12:57:29;5.00;;;2.25;;
9485;SDS011;4781;48.776;9.200;2023-04-03T12:59:58;6.35;;;2.08;;
9485;SDS011;4781;48.776;9.200;2023-04-03T13:02:29;4.95;;;1.85;;
9485;SDS011;4781;48.776;9.200;2023-04-03T13:05:04;5.80;;;2.00;;
9485;SDS011;4781;48.776;9.200;2023-04-03T13:07:33;3.40;;;1.80;;
9485;SDS011;4781;48.776;9.200;2023-04-03T13:12:50;4.15;;;1.75;;
9485;SDS011;4781;48.776;9.200;2023-04-03T13:15:24;6.00;;;2.10;;
9485;SDS011;4781;48.776;9.200;2023-04-03T13:21:10;5.60;;;2.00;;
9485;SDS011;4781;48.776;9.200;2023-04-03T13:23:31;4.10;;;1.70;;
9485;SDS011;4781;48.776;9.200;2023-04-03T13:26:02;5.17;;;1.92;;
9485;SDS011;4781;48.776;9.200;2023-04-03T13:28:32;5.58;;;1.92;;
9485;SDS011;4781;48.776;9.200;2023-04-03T13:31:07;5.72;;;1.92;;
9485;SDS011;4781;48.776;9.200;2023-04-03T13:36:37;6.47;;;1.98;;
9485;SDS011;4781;48.776;9.200;2023-04-03T13:41:52;5.15;;;1.92;;
9485;SDS011;4781;48.776;9.200;2023-04-03T13:47:14;3.77;;;1.70;;
9485;SDS011;4781;48.776;9.200;2023-04-03T13:49:31;4.60;;;1.80;;
9485;SDS011;4781;48.776;9.200;2023-04-03T13:54:55;5.05;;;1.92;;
9485;SDS011;4781;48.776;9.200;2023-04-03T13:57:26;5.62;;;3.00;;
9485;SDS011;4781;48.776;9.200;2023-04-03T13:59:55;7.17;;;2.20;;
9485;SDS011;4781;48.776;9.200;2023-04-03T14:02:31;5.03;;;2.08;;
9485;SDS011;4781;48.776;9.200;2023-04-03T14:05:01;4.53;;;2.50;;
9485;SDS011;4781;48.776;9.200;2023-04-03T14:07:32;4.45;;;2.00;;
9485;SDS011;4781;48.776;9.200;2023-04-03T14:10:02;6.78;;;2.30;;
9485;SDS011;4781;48.776;9.200;2023-04-03T14:12:32;3.95;;;2.10;;
9485;SDS011;4781;48.776;9.200;2023-04-03T14:15:06;6.10;;;2.20;;
9485;SDS011;4781;48.776;9.200;2023-04-03T14:17:41;5.25;;;2.10;;
9485;SDS011;4781;48.776;9.200;2023-04-03T14:20:14;6.33;;;2.05;;
9485;SDS011;4781;48.776;9.200;2023-04-03T14:25:12;6.35;;;2.27;;
9485;SDS011;4781;48.776;9.200;2023-04-03T14:27:42;5.55;;;1.90;;
9485;SDS011;4781;48.776;9.200;2023-04-03T14:30:26;6.65;;;2.10;;
9485;SDS011;4781;48.776;9.200;2023-04-03T14:32:57;4.45;;;1.92;;
9485;SDS011;4781;48.776;9.200;2023-04-03T14:35:27;4.83;;;2.08;;
9485;SDS011;4781;48.776;9.200;2023-04-03T14:37:55;5.62;;;2.10;;
9485;SDS011;4781;48.776;9.200;2023-04-03T14:40:25;5.95;;;2.02;;
9485;SDS011;4781;48.776;9.200;2023-04-03T14:42:54;4.67;;;2.08;;
9485;SDS011;4781;48.776;9.200;2023-04-03T14:45:24;4.83;;;2.40;;
9485;SDS011;4781;48.776;9.200;2023-04-03T14:47:53;5.55;;;1.90;;
9485;SDS011;4781;48.776;9.200;2023-04-03T14:50:23;3.98;;;1.72;;
9485;SDS011;4781;48.776;9.200;2023-04-03T14:52:55;5.53;;;2.02;;
9485;SDS011;4781;48.776;9.200;2023-04-03T14:55:25;5.03;;;2.20;;
9485;SDS011;4781;48.776;9.200;2023-04-03T14:57:54;4.70;;;1.87;;
9485;SDS011;4781;48.776;9.200;2023-04-03T15:00:22;5.50;;;2.00;;
9485;SDS011;4781;48.776;9.200;2023-04-03T15:02:51;4.65;;;2.75;;
9485;SDS011;4781;48.776;9.200;2023-04-03T15:05:19;5.00;;;2.02;;
9485;SDS011;4781;48.776;9.200;2023-04-03T15:07:56;4.05;;;1.98;;
9485;SDS011;4781;48.776;9.200;2023-04-03T15:10:29;5.97;;;1.90;;
9485;SDS011;4781;48.776;9.200;2023-04-03T15:12:58;6.12;;;2.65;;
9485;SDS011;4781;48.776;9.200;2023-04-03T15:15:28;6.45;;;2.08;;
9485;SDS011;4781;48.776;9.200;2023-04-03T15:17:57;4.25;;;1.80;;
9485;SDS011;4781;48.776;9.200;2023-04-03T15:20:27;4.87;;;2.10;;
9485;SDS011;4781;48.776;9.200;2023-04-03T15:22:58;5.55;;;2.25;;
9485;SDS011;4781;48.776;9.200;2023-04-03T15:25:28;4.53;;;1.90;;
9485;SDS011;4781;48.776;9.200;2023-04-03T15:27:57;5.08;;;2.30;;
9485;SDS011;4781;48.776;9.200;2023-04-03T15:30:27;3.98;;;1.85;;
9485;SDS011;4781;48.776;9.200;2023-04-03T15:32:55;5.05;;;1.90;;
9485;SDS011;4781;48.776;9.200;2023-04-03T15:35:24;5.62;;;2.00;;
9485;SDS011;4781;48.776;9.200;2023-04-03T15:37:52;5.08;;;2.02;;
9485;SDS011;4781;48.776;9.200;2023-04-03T15:40:20;6.20;;;2.22;;
9485;SDS011;4781;48.776;9.200;2023-04-03T15:42:49;4.90;;;2.55;;
9485;SDS011;4781;48.776;9.200;2023-04-03T15:45:17;6.10;;;2.17;;
9485;SDS011;4781;48.776;9.200;2023-04-03T15:47:47;4.53;;;1.87;;
9485;SDS011;4781;48.776;9.200;2023-04-03T15:50:16;4.35;;;2.27;;
9485;SDS011;4781;48.776;9.200;2023-04-03T15:52:44;5.42;;;2.17;;
9485;SDS011;4781;48.776;9.200;2023-04-03T15:55:12;3.20;;;1.60;;
9485;SDS011;4781;48.776;9.200;2023-04-03T15:57:41;5.97;;;2.27;;
9485;SDS011;4781;48.776;9.200;2023-04-03T16:00:10;3.73;;;1.80;;
9485;SDS011;4781;48.776;9.200;2023-04-03T16:02:39;3.70;;;1.82;;
9485;SDS011;4781;48.776;9.200;2023-04-03T16:05:09;4.25;;;1.70;;
9485;SDS011;4781;48.776;9.200;2023-04-03T16:07:39;4.30;;;1.57;;
9485;SDS011;4781;48.776;9.200;2023-04-03T16:10:08;5.28;;;1.85;;
9485;SDS011;4781;48.776;9.200;2023-04-03T16:12:38;7.15;;;2.50;;
9485;SDS011;4781;48.776;9.200;2023-04-03T16:15:06;4.78;;;2.33;;
9485;SDS011;4781;48.776;9.200;2023-04-03T16:17:35;4.70;;;1.72;;
9485;SDS011;4781;48.776;9.200;2023-04-03T16:20:07;4.60;;;1.90;;
9485;SDS011;4781;48.776;9.200;2023-04-03T16:22:37;4.95;;;1.95;;
9485;SDS011;4781;48.776;9.200;2023-04-03T16:25:07;7.42;;;2.30;;
9485;SDS011;4781;48.776;9.200;2023-04-03T16:27:36;3.72;;;1.90;;
9485;SDS011;4781;48.776;9.200;2023-04-03T16:30:06;4.42;;;1.72;;
9485;SDS011;4781;48.776;9.200;2023-04-03T16:32:35;5.50;;;1.90;;
9485;SDS011;4781;48.776;9.200;2023-04-03T16:35:06;4.62;;;2.00;;
9485;SDS011;4781;48.776;9.200;2023-04-03T16:37:36;6.65;;;2.20;;
9485;SDS011;4781;48.776;9.200;2023-04-03T16:40:06;5.22;;;1.95;;
9485;SDS011;4781;48.776;9.200;2023-04-03T16:42:36;5.17;;;2.17;;
9485;SDS011;4781;48.776;9.200;2023-04-03T16:45:06;5.47;;;1.72;;
9485;SDS011;4781;48.776;9.200;2023-04-03T16:47:41;4.17;;;1.80;;
9485;SDS011;4781;48.776;9.200;2023-04-03T16:50:09;5.72;;;2.10;;
9485;SDS011;4781;48.776;9.200;2023-04-03T16:52:38;4.03;;;2.12;;
9485;SDS011;4781;48.776;9.200;2023-04-03T16:55:07;7.33;;;2.70;;
9485;SDS011;4781;48.776;9.200;2023-04-03T16:57:36;5.92;;;2.10;;
9485;SDS011;4781;48.776;9.200;2023-04-03T17:00:04;4.25;;;1.80;;
9485;SDS011;4781;48.776;9.200;2023-04-03T17:02:34;4.97;;;2.30;;
9485;SDS011;4781;48.776;9.200;2023-04-03T17:05:02;4.97;;;2.27;;
9485;SDS011;4781;48.776;9.200;2023-04-03T17:07:31;5.03;;;2.10;;
9485;SDS011;4781;48.776;9.200;2023-04-03T17:10:00;5.15;;;2.27;;
9485;SDS011;4781;48.776;9.200;2023-04-03T17:12:30;6.00;;;2.00;;
9485;SDS011;4781;48.776;9.200;2023-04-03T17:14:58;5.85;;;2.37;;
9485;SDS011;4781;48.776;9.200;2023-04-03T17:17:27;4.67;;;2.35;;